sensor_id;sensor_type;location;lat;lon;timestamp;temperature;humidity
12307;DHT22;6216;51.146;7.008;2022-10-31T00:00:57;17.30;99.90
12307;DHT22;6216;51.146;7.008;2022-10-31T00:03:26;17.30;99.90
12307;DHT22;6216;51.146;7.008;2022-10-31T00:05:55;17.30;99.90
12307;DHT22;6216;51.146;7.008;2022-10-31T00:08:23;17.30;99.90
12307;DHT22;6216;51.146;7.008;2022-10-31T00:10:51;17.20;99.90
12307;DHT22;6216;51.146;7.008;2022-10-31T00:13:18;17.20;99.90
12307;DHT22;6216;51.146;7.008;2022-10-31T00:15:51;17.20;99.90
12307;DHT22;6216;51.146;7.008;2022-10-31T00:18:19;17.20;99.90
12307;DHT22;6216;51.146;7.008;2022-10-31T00:20:47;17.10;99.90
12307;DHT22;6216;51.146;7.008;2022-10-31T00:23:16;17.10;99.90
12307;DHT22;6216;51.146;7.008;2022-10-31T00:25:44;17.10;99.90
12307;DHT22;6216;51.146;7.008;2022-10-31T00:28:12;17.10;99.90
12307;DHT22;6216;51.146;7.008;2022-10-31T00:30:40;17.00;99.90
12307;DHT22;6216;51.146;7.008;2022-10-31T00:33:08;17.00;99.90
12307;DHT22;6216;51.146;7.008;2022-10-31T00:35:36;17.00;99.90
12307;DHT22;6216;51.146;7.008;2022-10-31T00:38:03;17.00;99.90
12307;DHT22;6216;51.146;7.008;2022-10-31T00:40:33;17.00;99.90
12307;DHT22;6216;51.146;7.008;2022-10-31T00:43:01;17.00;99.90
12307;DHT22;6216;51.146;7.008;2022-10-31T00:45:29;16.90;99.90
12307;DHT22;6216;51.146;7.008;2022-10-31T00:47:57;16.90;99.90
12307;DHT22;6216;51.146;7.008;2022-10-31T00:50:26;16.90;99.90
12307;DHT22;6216;51.146;7.008;2022-10-31T00:52:54;16.90;99.90
12307;DHT22;6216;51.146;7.008;2022-10-31T00:55:22;16.80;99.90
12307;DHT22;6216;51.146;7.008;2022-10-31T00:57:51;16.90;99.90
12307;DHT22;6216;51.146;7.008;2022-10-31T01:00:19;16.80;99.90
12307;DHT22;6216;51.146;7.008;2022-10-31T01:02:47;16.90;99.90
12307;DHT22;6216;51.146;7.008;2022-10-31T01:05:15;16.90;99.90
12307;DHT22;6216;51.146;7.008;2022-10-31T01:07:43;16.80;99.90
12307;DHT22;6216;51.146;7.008;2022-10-31T01:10:11;16.80;99.90
12307;DHT22;6216;51.146;7.008;2022-10-31T01:12:40;16.80;99.90
12307;DHT22;6216;51.146;7.008;2022-10-31T01:15:11;16.80;99.90
12307;DHT22;6216;51.146;7.008;2022-10-31T01:17:40;16.80;99.90
12307;DHT22;6216;51.146;7.008;2022-10-31T01:20:10;16.90;99.90
12307;DHT22;6216;51.146;7.008;2022-10-31T01:22:38;16.90;99.90
12307;DHT22;6216;51.146;7.008;2022-10-31T01:25:07;16.90;99.90
12307;DHT22;6216;51.146;7.008;2022-10-31T01:27:35;16.90;99.90
12307;DHT22;6216;51.146;7.008;2022-10-31T01:30:05;16.90;99.90
12307;DHT22;6216;51.146;7.008;2022-10-31T01:32:34;16.90;99.90
12307;DHT22;6216;51.146;7.008;2022-10-31T01:35:02;17.00;99.90
12307;DHT22;6216;51.146;7.008;2022-10-31T01:37:31;17.00;99.90
12307;DHT22;6216;51.146;7.008;2022-10-31T01:39:59;17.00;99.90
12307;DHT22;6216;51.146;7.008;2022-10-31T01:42:27;17.00;99.90
12307;DHT22;6216;51.146;7.008;2022-10-31T01:44:58;17.00;99.90
12307;DHT22;6216;51.146;7.008;2022-10-31T01:47:38;16.90;99.90
12307;DHT22;6216;51.146;7.008;2022-10-31T01:50:17;17.00;99.90
12307;DHT22;6216;51.146;7.008;2022-10-31T01:52:48;17.00;99.90
12307;DHT22;6216;51.146;7.008;2022-10-31T01:55:23;17.00;99.90
12307;DHT22;6216;51.146;7.008;2022-10-31T01:57:59;17.00;99.90
12307;DHT22;6216;51.146;7.008;2022-10-31T02:00:30;16.90;99.90
12307;DHT22;6216;51.146;7.008;2022-10-31T02:02:59;16.90;99.90
12307;DHT22;6216;51.146;7.008;2022-10-31T02:05:29;16.90;99.90
12307;DHT22;6216;51.146;7.008;2022-10-31T02:08:01;16.90;99.90
12307;DHT22;6216;51.146;7.008;2022-10-31T02:10:31;16.90;99.90
12307;DHT22;6216;51.146;7.008;2022-10-31T02:13:02;16.80;99.90
12307;DHT22;6216;51.146;7.008;2022-10-31T02:15:31;16.80;99.90
12307;DHT22;6216;51.146;7.008;2022-10-31T02:18:01;16.80;99.90
12307;DHT22;6216;51.146;7.008;2022-10-31T02:20:32;16.80;99.90
12307;DHT22;6216;51.146;7.008;2022-10-31T02:23:31;16.80;99.90
12307;DHT22;6216;51.146;7.008;2022-10-31T02:29:16;16.70;99.90
12307;DHT22;6216;51.146;7.008;2022-10-31T02:31:53;16.60;99.90
12307;DHT22;6216;51.146;7.008;2022-10-31T02:34:30;16.50;99.90
12307;DHT22;6216;51.146;7.008;2022-10-31T02:37:06;16.50;99.90
12307;DHT22;6216;51.146;7.008;2022-10-31T02:39:42;16.50;99.90
12307;DHT22;6216;51.146;7.008;2022-10-31T02:42:16;16.40;99.90
12307;DHT22;6216;51.146;7.008;2022-10-31T02:44:51;16.40;99.90
12307;DHT22;6216;51.146;7.008;2022-10-31T02:47:26;16.40;99.90
12307;DHT22;6216;51.146;7.008;2022-10-31T02:49:57;16.30;99.90
12307;DHT22;6216;51.146;7.008;2022-10-31T02:52:29;16.30;99.90
12307;DHT22;6216;51.146;7.008;2022-10-31T02:54:57;16.30;99.90
12307;DHT22;6216;51.146;7.008;2022-10-31T02:57:28;16.20;99.90
12307;DHT22;6216;51.146;7.008;2022-10-31T03:00:00;16.20;99.90
12307;DHT22;6216;51.146;7.008;2022-10-31T03:02:46;16.20;99.90
12307;DHT22;6216;51.146;7.008;2022-10-31T03:05:34;16.20;99.90
12307;DHT22;6216;51.146;7.008;2022-10-31T03:08:11;16.20;99.90
12307;DHT22;6216;51.146;7.008;2022-10-31T03:10:44;16.20;99.90
12307;DHT22;6216;51.146;7.008;2022-10-31T03:13:21;16.20;99.90
12307;DHT22;6216;51.146;7.008;2022-10-31T03:15:59;16.20;99.90
12307;DHT22;6216;51.146;7.008;2022-10-31T03:18:34;16.20;99.90
12307;DHT22;6216;51.146;7.008;2022-10-31T03:21:06;16.20;99.90
12307;DHT22;6216;51.146;7.008;2022-10-31T03:23:36;16.20;99.90
12307;DHT22;6216;51.146;7.008;2022-10-31T03:26:07;16.20;99.90
12307;DHT22;6216;51.146;7.008;2022-10-31T03:28:37;16.20;99.90
12307;DHT22;6216;51.146;7.008;2022-10-31T03:31:07;16.10;99.90
12307;DHT22;6216;51.146;7.008;2022-10-31T03:33:38;16.10;99.90
12307;DHT22;6216;51.146;7.008;2022-10-31T03:36:08;16.20;99.90
12307;DHT22;6216;51.146;7.008;2022-10-31T03:38:37;16.20;99.90
12307;DHT22;6216;51.146;7.008;2022-10-31T03:41:11;16.10;99.90
12307;DHT22;6216;51.146;7.008;2022-10-31T03:43:44;16.10;99.90
12307;DHT22;6216;51.146;7.008;2022-10-31T03:46:14;16.10;99.90
12307;DHT22;6216;51.146;7.008;2022-10-31T03:48:43;16.10;99.90
12307;DHT22;6216;51.146;7.008;2022-10-31T03:51:15;16.20;99.90
12307;DHT22;6216;51.146;7.008;2022-10-31T03:53:47;16.20;99.90
12307;DHT22;6216;51.146;7.008;2022-10-31T03:56:22;16.10;99.90
12307;DHT22;6216;51.146;7.008;2022-10-31T03:58:57;16.20;99.90
12307;DHT22;6216;51.146;7.008;2022-10-31T04:01:28;16.20;99.90
12307;DHT22;6216;51.146;7.008;2022-10-31T04:04:00;16.20;99.90
12307;DHT22;6216;51.146;7.008;2022-10-31T04:06:29;16.20;99.90
12307;DHT22;6216;51.146;7.008;2022-10-31T04:09:01;16.20;99.90
12307;DHT22;6216;51.146;7.008;2022-10-31T04:11:33;16.20;99.90
12307;DHT22;6216;51.146;7.008;2022-10-31T04:14:02;16.20;99.90
12307;DHT22;6216;51.146;7.008;2022-10-31T04:16:32;16.10;99.90
12307;DHT22;6216;51.146;7.008;2022-10-31T04:19:01;16.20;99.90
12307;DHT22;6216;51.146;7.008;2022-10-31T04:21:30;16.10;99.90
12307;DHT22;6216;51.146;7.008;2022-10-31T04:23:57;16.10;99.90
12307;DHT22;6216;51.146;7.008;2022-10-31T04:26:26;16.10;99.90
12307;DHT22;6216;51.146;7.008;2022-10-31T04:28:53;16.10;99.90
12307;DHT22;6216;51.146;7.008;2022-10-31T04:31:21;16.10;99.90
12307;DHT22;6216;51.146;7.008;2022-10-31T04:33:49;16.10;99.90
12307;DHT22;6216;51.146;7.008;2022-10-31T04:36:18;16.00;99.90
12307;DHT22;6216;51.146;7.008;2022-10-31T04:38:46;15.90;99.90
12307;DHT22;6216;51.146;7.008;2022-10-31T04:41:14;15.90;99.90
12307;DHT22;6216;51.146;7.008;2022-10-31T04:43:42;15.80;99.90
12307;DHT22;6216;51.146;7.008;2022-10-31T04:46:10;15.80;99.90
12307;DHT22;6216;51.146;7.008;2022-10-31T04:48:38;15.70;99.90
12307;DHT22;6216;51.146;7.008;2022-10-31T04:51:05;15.70;99.90
12307;DHT22;6216;51.146;7.008;2022-10-31T04:53:35;15.70;99.90
12307;DHT22;6216;51.146;7.008;2022-10-31T04:56:03;15.70;99.90
12307;DHT22;6216;51.146;7.008;2022-10-31T04:58:31;15.80;99.90
12307;DHT22;6216;51.146;7.008;2022-10-31T05:00:59;15.80;99.90
12307;DHT22;6216;51.146;7.008;2022-10-31T05:03:27;15.80;99.90
12307;DHT22;6216;51.146;7.008;2022-10-31T05:05:55;15.90;99.90
12307;DHT22;6216;51.146;7.008;2022-10-31T05:08:23;15.90;99.90
12307;DHT22;6216;51.146;7.008;2022-10-31T05:10:52;15.90;99.90
12307;DHT22;6216;51.146;7.008;2022-10-31T05:13:20;16.00;99.90
12307;DHT22;6216;51.146;7.008;2022-10-31T05:15:49;16.00;99.90
12307;DHT22;6216;51.146;7.008;2022-10-31T05:18:17;16.00;99.90
12307;DHT22;6216;51.146;7.008;2022-10-31T05:20:45;16.00;99.90
12307;DHT22;6216;51.146;7.008;2022-10-31T05:23:13;16.00;99.90
12307;DHT22;6216;51.146;7.008;2022-10-31T05:25:41;16.00;99.90
12307;DHT22;6216;51.146;7.008;2022-10-31T05:28:10;16.00;99.90
12307;DHT22;6216;51.146;7.008;2022-10-31T05:30:38;16.00;99.90
12307;DHT22;6216;51.146;7.008;2022-10-31T05:33:06;16.00;99.90
12307;DHT22;6216;51.146;7.008;2022-10-31T05:35:34;16.00;99.90
12307;DHT22;6216;51.146;7.008;2022-10-31T05:38:02;16.00;99.90
12307;DHT22;6216;51.146;7.008;2022-10-31T05:40:30;15.90;99.90
12307;DHT22;6216;51.146;7.008;2022-10-31T05:42:58;15.90;99.90
12307;DHT22;6216;51.146;7.008;2022-10-31T05:45:27;15.90;99.90
12307;DHT22;6216;51.146;7.008;2022-10-31T05:47:57;15.90;99.90
12307;DHT22;6216;51.146;7.008;2022-10-31T05:50:28;15.90;99.90
12307;DHT22;6216;51.146;7.008;2022-10-31T05:52:57;15.90;99.90
12307;DHT22;6216;51.146;7.008;2022-10-31T05:55:25;15.90;99.90
12307;DHT22;6216;51.146;7.008;2022-10-31T05:57:53;15.90;99.90
12307;DHT22;6216;51.146;7.008;2022-10-31T06:00:22;15.90;99.90
12307;DHT22;6216;51.146;7.008;2022-10-31T06:02:57;15.90;99.90
12307;DHT22;6216;51.146;7.008;2022-10-31T06:05:26;15.90;99.90
12307;DHT22;6216;51.146;7.008;2022-10-31T06:07:54;15.90;99.90
12307;DHT22;6216;51.146;7.008;2022-10-31T06:10:23;15.90;99.90
12307;DHT22;6216;51.146;7.008;2022-10-31T06:12:51;15.90;99.90
12307;DHT22;6216;51.146;7.008;2022-10-31T06:15:19;15.90;99.90
12307;DHT22;6216;51.146;7.008;2022-10-31T06:17:59;15.90;99.90
12307;DHT22;6216;51.146;7.008;2022-10-31T06:20:29;15.90;99.90
12307;DHT22;6216;51.146;7.008;2022-10-31T06:22:57;15.90;99.90
12307;DHT22;6216;51.146;7.008;2022-10-31T06:25:26;15.90;99.90
12307;DHT22;6216;51.146;7.008;2022-10-31T06:27:54;15.90;99.90
12307;DHT22;6216;51.146;7.008;2022-10-31T06:30:22;15.90;99.90
12307;DHT22;6216;51.146;7.008;2022-10-31T06:32:50;15.80;99.90
12307;DHT22;6216;51.146;7.008;2022-10-31T06:35:20;15.80;99.90
12307;DHT22;6216;51.146;7.008;2022-10-31T06:37:51;15.80;99.90
12307;DHT22;6216;51.146;7.008;2022-10-31T06:40:19;15.70;99.90
12307;DHT22;6216;51.146;7.008;2022-10-31T06:42:55;15.70;99.90
12307;DHT22;6216;51.146;7.008;2022-10-31T06:45:23;15.80;99.90
12307;DHT22;6216;51.146;7.008;2022-10-31T06:47:51;15.70;99.90
12307;DHT22;6216;51.146;7.008;2022-10-31T06:50:41;15.70;99.90
12307;DHT22;6216;51.146;7.008;2022-10-31T06:53:09;15.80;99.90
12307;DHT22;6216;51.146;7.008;2022-10-31T06:55:37;15.80;99.90
12307;DHT22;6216;51.146;7.008;2022-10-31T06:58:05;15.80;99.90
12307;DHT22;6216;51.146;7.008;2022-10-31T07:00:34;15.80;99.90
12307;DHT22;6216;51.146;7.008;2022-10-31T07:03:04;15.90;99.90
12307;DHT22;6216;51.146;7.008;2022-10-31T07:05:32;15.80;99.90
12307;DHT22;6216;51.146;7.008;2022-10-31T07:08:03;15.90;99.90
12307;DHT22;6216;51.146;7.008;2022-10-31T07:10:33;15.90;99.90
12307;DHT22;6216;51.146;7.008;2022-10-31T07:13:09;15.90;99.90
12307;DHT22;6216;51.146;7.008;2022-10-31T07:15:39;16.00;99.90
12307;DHT22;6216;51.146;7.008;2022-10-31T07:18:09;16.00;99.90
12307;DHT22;6216;51.146;7.008;2022-10-31T07:20:37;16.00;99.90
12307;DHT22;6216;51.146;7.008;2022-10-31T07:23:07;16.00;99.90
12307;DHT22;6216;51.146;7.008;2022-10-31T07:25:35;16.00;99.90
12307;DHT22;6216;51.146;7.008;2022-10-31T07:28:03;16.00;99.90
12307;DHT22;6216;51.146;7.008;2022-10-31T07:30:31;16.00;99.90
12307;DHT22;6216;51.146;7.008;2022-10-31T07:32:59;16.00;99.90
12307;DHT22;6216;51.146;7.008;2022-10-31T07:35:28;16.00;99.90
12307;DHT22;6216;51.146;7.008;2022-10-31T07:37:56;16.00;99.90
12307;DHT22;6216;51.146;7.008;2022-10-31T07:40:26;16.00;99.90
12307;DHT22;6216;51.146;7.008;2022-10-31T07:42:54;16.00;99.90
12307;DHT22;6216;51.146;7.008;2022-10-31T07:45:22;16.00;99.90
12307;DHT22;6216;51.146;7.008;2022-10-31T07:47:51;16.00;99.90
12307;DHT22;6216;51.146;7.008;2022-10-31T07:50:20;16.00;99.90
12307;DHT22;6216;51.146;7.008;2022-10-31T07:52:48;16.00;99.90
12307;DHT22;6216;51.146;7.008;2022-10-31T07:55:26;16.00;99.90
12307;DHT22;6216;51.146;7.008;2022-10-31T07:57:59;16.10;99.90
12307;DHT22;6216;51.146;7.008;2022-10-31T08:00:28;16.10;99.90
12307;DHT22;6216;51.146;7.008;2022-10-31T08:02:57;16.10;99.90
12307;DHT22;6216;51.146;7.008;2022-10-31T08:05:26;16.10;99.90
12307;DHT22;6216;51.146;7.008;2022-10-31T08:07:54;16.10;99.90
12307;DHT22;6216;51.146;7.008;2022-10-31T08:10:22;16.10;99.90
12307;DHT22;6216;51.146;7.008;2022-10-31T08:12:56;16.20;99.90
12307;DHT22;6216;51.146;7.008;2022-10-31T08:15:25;16.30;99.90
12307;DHT22;6216;51.146;7.008;2022-10-31T08:17:53;16.30;99.90
12307;DHT22;6216;51.146;7.008;2022-10-31T08:20:21;16.40;99.90
12307;DHT22;6216;51.146;7.008;2022-10-31T08:22:54;16.40;99.90
12307;DHT22;6216;51.146;7.008;2022-10-31T08:25:22;16.50;99.90
12307;DHT22;6216;51.146;7.008;2022-10-31T08:27:51;16.50;99.90
12307;DHT22;6216;51.146;7.008;2022-10-31T08:30:21;16.50;99.90
12307;DHT22;6216;51.146;7.008;2022-10-31T08:33:00;16.60;99.90
12307;DHT22;6216;51.146;7.008;2022-10-31T08:35:31;16.60;99.90
12307;DHT22;6216;51.146;7.008;2022-10-31T08:37:59;16.60;99.90
12307;DHT22;6216;51.146;7.008;2022-10-31T08:40:29;16.60;99.90
12307;DHT22;6216;51.146;7.008;2022-10-31T08:42:59;16.60;99.90
12307;DHT22;6216;51.146;7.008;2022-10-31T08:45:29;16.60;99.90
12307;DHT22;6216;51.146;7.008;2022-10-31T08:47:58;16.70;99.90
12307;DHT22;6216;51.146;7.008;2022-10-31T08:50:28;16.70;99.90
12307;DHT22;6216;51.146;7.008;2022-10-31T08:53:00;16.80;99.90
12307;DHT22;6216;51.146;7.008;2022-10-31T08:55:33;16.90;99.90
12307;DHT22;6216;51.146;7.008;2022-10-31T08:58:02;16.90;99.90
12307;DHT22;6216;51.146;7.008;2022-10-31T09:00:32;17.00;99.90
12307;DHT22;6216;51.146;7.008;2022-10-31T09:03:02;17.10;99.90
12307;DHT22;6216;51.146;7.008;2022-10-31T09:05:31;17.20;99.90
12307;DHT22;6216;51.146;7.008;2022-10-31T09:08:02;17.20;99.90
12307;DHT22;6216;51.146;7.008;2022-10-31T09:10:32;17.30;99.90
12307;DHT22;6216;51.146;7.008;2022-10-31T09:13:02;17.30;99.90
12307;DHT22;6216;51.146;7.008;2022-10-31T09:15:35;17.40;99.90
12307;DHT22;6216;51.146;7.008;2022-10-31T09:18:05;17.40;99.90
12307;DHT22;6216;51.146;7.008;2022-10-31T09:20:34;17.50;99.90
12307;DHT22;6216;51.146;7.008;2022-10-31T09:23:03;17.50;99.90
12307;DHT22;6216;51.146;7.008;2022-10-31T09:25:33;17.60;99.90
12307;DHT22;6216;51.146;7.008;2022-10-31T09:28:03;17.60;99.90
12307;DHT22;6216;51.146;7.008;2022-10-31T09:30:34;17.70;99.90
12307;DHT22;6216;51.146;7.008;2022-10-31T09:33:04;17.70;99.90
12307;DHT22;6216;51.146;7.008;2022-10-31T09:35:32;17.70;99.90
12307;DHT22;6216;51.146;7.008;2022-10-31T09:38:02;17.70;99.90
12307;DHT22;6216;51.146;7.008;2022-10-31T09:40:33;17.70;99.90
12307;DHT22;6216;51.146;7.008;2022-10-31T09:43:10;17.80;99.90
12307;DHT22;6216;51.146;7.008;2022-10-31T09:45:47;17.90;99.90
12307;DHT22;6216;51.146;7.008;2022-10-31T09:48:27;18.00;99.90
12307;DHT22;6216;51.146;7.008;2022-10-31T09:51:00;18.10;99.90
12307;DHT22;6216;51.146;7.008;2022-10-31T09:53:35;18.20;99.90
12307;DHT22;6216;51.146;7.008;2022-10-31T09:56:07;18.30;99.90
12307;DHT22;6216;51.146;7.008;2022-10-31T09:58:42;18.40;99.90
12307;DHT22;6216;51.146;7.008;2022-10-31T10:01:39;18.50;99.90
12307;DHT22;6216;51.146;7.008;2022-10-31T10:04:20;18.60;99.90
12307;DHT22;6216;51.146;7.008;2022-10-31T10:06:52;18.60;99.90
12307;DHT22;6216;51.146;7.008;2022-10-31T10:09:24;18.70;99.90
12307;DHT22;6216;51.146;7.008;2022-10-31T10:12:01;18.70;99.90
12307;DHT22;6216;51.146;7.008;2022-10-31T10:14:41;18.70;99.90
12307;DHT22;6216;51.146;7.008;2022-10-31T10:17:21;18.80;99.90
12307;DHT22;6216;51.146;7.008;2022-10-31T10:20:17;19.00;99.90
12307;DHT22;6216;51.146;7.008;2022-10-31T10:22:54;19.10;99.90
12307;DHT22;6216;51.146;7.008;2022-10-31T10:25:24;19.30;99.90
12307;DHT22;6216;51.146;7.008;2022-10-31T10:28:03;19.50;99.90
12307;DHT22;6216;51.146;7.008;2022-10-31T10:30:39;19.60;99.90
12307;DHT22;6216;51.146;7.008;2022-10-31T10:33:12;19.70;99.90
12307;DHT22;6216;51.146;7.008;2022-10-31T10:35:45;19.60;99.90
12307;DHT22;6216;51.146;7.008;2022-10-31T10:38:19;19.60;99.90
12307;DHT22;6216;51.146;7.008;2022-10-31T10:40:48;19.70;99.90
12307;DHT22;6216;51.146;7.008;2022-10-31T10:43:22;19.90;99.90
12307;DHT22;6216;51.146;7.008;2022-10-31T10:45:55;19.80;99.90
12307;DHT22;6216;51.146;7.008;2022-10-31T10:48:47;19.80;99.90
12307;DHT22;6216;51.146;7.008;2022-10-31T10:51:21;19.80;99.90
12307;DHT22;6216;51.146;7.008;2022-10-31T10:54:43;19.70;99.90
12307;DHT22;6216;51.146;7.008;2022-10-31T10:57:22;19.70;99.90
12307;DHT22;6216;51.146;7.008;2022-10-31T10:59:54;19.50;99.90
12307;DHT22;6216;51.146;7.008;2022-10-31T11:02:24;19.50;99.90
12307;DHT22;6216;51.146;7.008;2022-10-31T11:04:55;19.60;99.90
12307;DHT22;6216;51.146;7.008;2022-10-31T11:07:24;19.60;99.90
12307;DHT22;6216;51.146;7.008;2022-10-31T11:10:03;19.80;99.90
12307;DHT22;6216;51.146;7.008;2022-10-31T11:12:33;20.00;99.90
12307;DHT22;6216;51.146;7.008;2022-10-31T11:15:07;20.10;99.90
12307;DHT22;6216;51.146;7.008;2022-10-31T11:17:37;20.30;99.90
12307;DHT22;6216;51.146;7.008;2022-10-31T11:20:28;20.60;99.90
12307;DHT22;6216;51.146;7.008;2022-10-31T11:23:04;20.90;99.90
12307;DHT22;6216;51.146;7.008;2022-10-31T11:25:33;21.00;99.90
12307;DHT22;6216;51.146;7.008;2022-10-31T11:28:02;21.10;99.90
12307;DHT22;6216;51.146;7.008;2022-10-31T11:30:44;21.20;99.90
12307;DHT22;6216;51.146;7.008;2022-10-31T11:33:17;21.20;99.90
12307;DHT22;6216;51.146;7.008;2022-10-31T11:35:51;21.50;99.90
12307;DHT22;6216;51.146;7.008;2022-10-31T11:38:28;21.70;99.90
12307;DHT22;6216;51.146;7.008;2022-10-31T11:41:10;22.00;99.90
12307;DHT22;6216;51.146;7.008;2022-10-31T11:43:45;22.10;99.90
12307;DHT22;6216;51.146;7.008;2022-10-31T11:46:22;22.10;99.90
12307;DHT22;6216;51.146;7.008;2022-10-31T11:48:53;22.10;99.90
12307;DHT22;6216;51.146;7.008;2022-10-31T11:51:30;22.30;99.90
12307;DHT22;6216;51.146;7.008;2022-10-31T11:54:01;22.50;99.90
12307;DHT22;6216;51.146;7.008;2022-10-31T11:56:40;22.80;99.90
12307;DHT22;6216;51.146;7.008;2022-10-31T11:59:18;23.10;99.90
12307;DHT22;6216;51.146;7.008;2022-10-31T12:01:48;23.20;99.90
12307;DHT22;6216;51.146;7.008;2022-10-31T12:04:17;23.70;99.90
12307;DHT22;6216;51.146;7.008;2022-10-31T12:06:47;24.00;99.90
12307;DHT22;6216;51.146;7.008;2022-10-31T12:09:20;24.50;99.90
12307;DHT22;6216;51.146;7.008;2022-10-31T12:12:05;25.10;98.70
12307;DHT22;6216;51.146;7.008;2022-10-31T12:14:42;25.70;97.30
12307;DHT22;6216;51.146;7.008;2022-10-31T12:17:15;25.80;96.20
12307;DHT22;6216;51.146;7.008;2022-10-31T12:19:59;25.80;95.90
12307;DHT22;6216;51.146;7.008;2022-10-31T12:23:02;25.80;94.80
12307;DHT22;6216;51.146;7.008;2022-10-31T12:26:00;26.00;95.00
12307;DHT22;6216;51.146;7.008;2022-10-31T12:28:56;26.10;94.20
12307;DHT22;6216;51.146;7.008;2022-10-31T12:31:49;26.30;93.90
12307;DHT22;6216;51.146;7.008;2022-10-31T12:34:47;26.50;93.50
12307;DHT22;6216;51.146;7.008;2022-10-31T12:37:27;26.70;93.80
12307;DHT22;6216;51.146;7.008;2022-10-31T12:43:05;27.20;92.30
12307;DHT22;6216;51.146;7.008;2022-10-31T12:45:48;27.50;91.50
12307;DHT22;6216;51.146;7.008;2022-10-31T12:48:34;27.60;91.20
12307;DHT22;6216;51.146;7.008;2022-10-31T12:51:14;27.80;90.60
12307;DHT22;6216;51.146;7.008;2022-10-31T12:53:55;27.80;90.60
12307;DHT22;6216;51.146;7.008;2022-10-31T12:56:38;28.10;90.70
12307;DHT22;6216;51.146;7.008;2022-10-31T12:59:11;27.80;90.70
12307;DHT22;6216;51.146;7.008;2022-10-31T13:01:47;27.90;90.60
12307;DHT22;6216;51.146;7.008;2022-10-31T13:04:20;27.80;90.50
12307;DHT22;6216;51.146;7.008;2022-10-31T13:06:51;27.50;89.50
12307;DHT22;6216;51.146;7.008;2022-10-31T13:09:27;27.20;90.60
12307;DHT22;6216;51.146;7.008;2022-10-31T13:12:03;26.70;90.60
12307;DHT22;6216;51.146;7.008;2022-10-31T13:14:35;26.10;91.30
12307;DHT22;6216;51.146;7.008;2022-10-31T13:17:06;25.70;92.20
12307;DHT22;6216;51.146;7.008;2022-10-31T13:19:42;25.50;92.80
12307;DHT22;6216;51.146;7.008;2022-10-31T13:22:15;25.20;93.40
12307;DHT22;6216;51.146;7.008;2022-10-31T13:24:50;24.70;93.60
12307;DHT22;6216;51.146;7.008;2022-10-31T13:27:23;24.50;94.80
12307;DHT22;6216;51.146;7.008;2022-10-31T13:29:59;24.40;94.70
12307;DHT22;6216;51.146;7.008;2022-10-31T13:32:36;24.40;95.20
12307;DHT22;6216;51.146;7.008;2022-10-31T13:35:13;24.50;95.20
12307;DHT22;6216;51.146;7.008;2022-10-31T13:37:46;24.40;95.40
12307;DHT22;6216;51.146;7.008;2022-10-31T13:40:32;24.50;95.40
12307;DHT22;6216;51.146;7.008;2022-10-31T13:43:07;24.50;95.50
12307;DHT22;6216;51.146;7.008;2022-10-31T13:45:48;24.60;95.10
12307;DHT22;6216;51.146;7.008;2022-10-31T13:48:38;24.80;94.90
12307;DHT22;6216;51.146;7.008;2022-10-31T13:51:09;25.30;94.30
12307;DHT22;6216;51.146;7.008;2022-10-31T13:53:41;25.60;93.90
12307;DHT22;6216;51.146;7.008;2022-10-31T13:56:19;26.20;93.40
12307;DHT22;6216;51.146;7.008;2022-10-31T13:59:17;26.30;92.00
12307;DHT22;6216;51.146;7.008;2022-10-31T14:01:49;26.40;92.00
12307;DHT22;6216;51.146;7.008;2022-10-31T14:04:21;26.20;92.30
12307;DHT22;6216;51.146;7.008;2022-10-31T14:07:05;26.30;92.20
12307;DHT22;6216;51.146;7.008;2022-10-31T14:09:36;26.10;92.00
12307;DHT22;6216;51.146;7.008;2022-10-31T14:12:06;25.60;92.30
12307;DHT22;6216;51.146;7.008;2022-10-31T14:14:47;25.00;93.00
12307;DHT22;6216;51.146;7.008;2022-10-31T14:17:20;24.60;93.90
12307;DHT22;6216;51.146;7.008;2022-10-31T14:23:31;23.90;95.40
12307;DHT22;6216;51.146;7.008;2022-10-31T14:26:17;23.40;96.60
12307;DHT22;6216;51.146;7.008;2022-10-31T14:28:47;23.30;97.20
12307;DHT22;6216;51.146;7.008;2022-10-31T14:31:32;23.00;97.70
12307;DHT22;6216;51.146;7.008;2022-10-31T14:34:17;22.70;98.30
12307;DHT22;6216;51.146;7.008;2022-10-31T14:36:55;22.50;99.00
12307;DHT22;6216;51.146;7.008;2022-10-31T14:39:27;22.40;99.60
12307;DHT22;6216;51.146;7.008;2022-10-31T14:42:09;22.30;99.90
12307;DHT22;6216;51.146;7.008;2022-10-31T14:47:54;21.90;99.90
12307;DHT22;6216;51.146;7.008;2022-10-31T14:50:42;21.80;99.90
12307;DHT22;6216;51.146;7.008;2022-10-31T14:53:15;21.70;99.90
12307;DHT22;6216;51.146;7.008;2022-10-31T14:55:52;21.60;99.90
12307;DHT22;6216;51.146;7.008;2022-10-31T14:58:23;21.40;99.90
12307;DHT22;6216;51.146;7.008;2022-10-31T15:00:55;21.30;99.90
12307;DHT22;6216;51.146;7.008;2022-10-31T15:03:29;21.30;99.90
12307;DHT22;6216;51.146;7.008;2022-10-31T15:06:01;21.10;99.90
12307;DHT22;6216;51.146;7.008;2022-10-31T15:08:37;21.00;99.90
12307;DHT22;6216;51.146;7.008;2022-10-31T15:11:15;20.80;99.90
12307;DHT22;6216;51.146;7.008;2022-10-31T15:13:45;20.70;99.90
12307;DHT22;6216;51.146;7.008;2022-10-31T15:16:16;20.70;99.90
12307;DHT22;6216;51.146;7.008;2022-10-31T15:18:51;20.80;99.90
12307;DHT22;6216;51.146;7.008;2022-10-31T15:21:21;20.80;99.90
12307;DHT22;6216;51.146;7.008;2022-10-31T15:23:51;20.70;99.90
12307;DHT22;6216;51.146;7.008;2022-10-31T15:26:22;20.60;99.90
12307;DHT22;6216;51.146;7.008;2022-10-31T15:29:00;20.50;99.90
12307;DHT22;6216;51.146;7.008;2022-10-31T15:31:29;20.50;99.90
12307;DHT22;6216;51.146;7.008;2022-10-31T15:34:03;20.40;99.90
12307;DHT22;6216;51.146;7.008;2022-10-31T15:36:32;20.30;99.90
12307;DHT22;6216;51.146;7.008;2022-10-31T15:39:04;20.30;99.90
12307;DHT22;6216;51.146;7.008;2022-10-31T15:41:34;20.20;99.90
12307;DHT22;6216;51.146;7.008;2022-10-31T15:44:10;20.10;99.90
12307;DHT22;6216;51.146;7.008;2022-10-31T15:46:39;20.10;99.90
12307;DHT22;6216;51.146;7.008;2022-10-31T15:49:24;20.00;99.90
12307;DHT22;6216;51.146;7.008;2022-10-31T15:51:54;20.00;99.90
12307;DHT22;6216;51.146;7.008;2022-10-31T15:54:28;20.00;99.90
12307;DHT22;6216;51.146;7.008;2022-10-31T15:56:56;19.90;99.90
12307;DHT22;6216;51.146;7.008;2022-10-31T15:59:26;19.90;99.90
12307;DHT22;6216;51.146;7.008;2022-10-31T16:02:07;19.80;99.90
12307;DHT22;6216;51.146;7.008;2022-10-31T16:04:37;19.80;99.90
12307;DHT22;6216;51.146;7.008;2022-10-31T16:07:16;19.70;99.90
12307;DHT22;6216;51.146;7.008;2022-10-31T16:09:54;19.60;99.90
12307;DHT22;6216;51.146;7.008;2022-10-31T16:12:23;19.60;99.90
12307;DHT22;6216;51.146;7.008;2022-10-31T16:14:53;19.50;99.90
12307;DHT22;6216;51.146;7.008;2022-10-31T16:17:24;19.50;99.90
12307;DHT22;6216;51.146;7.008;2022-10-31T16:19:56;19.50;99.90
12307;DHT22;6216;51.146;7.008;2022-10-31T16:22:28;19.40;99.90
12307;DHT22;6216;51.146;7.008;2022-10-31T16:25:01;19.40;99.90
12307;DHT22;6216;51.146;7.008;2022-10-31T16:27:32;19.30;99.90
12307;DHT22;6216;51.146;7.008;2022-10-31T16:30:03;19.30;99.90
12307;DHT22;6216;51.146;7.008;2022-10-31T16:32:54;19.30;99.90